sensor_id;sensor_type;location;lat;lon;timestamp;P1;durP1;ratioP1;P2;durP2;ratioP2
21771;SDS011;11047;47.904;8.110;2023-02-12T00:00:17;4.78;;;2.92;;
21771;SDS011;11047;47.904;8.110;2023-02-12T00:02:44;6.32;;;2.90;;
21771;SDS011;11047;47.904;8.110;2023-02-12T00:05:11;5.95;;;3.42;;
21771;SDS011;11047;47.904;8.110;2023-02-12T00:07:41;6.93;;;3.30;;
21771;SDS011;11047;47.904;8.110;2023-02-12T00:10:08;4.45;;;2.60;;
21771;SDS011;11047;47.904;8.110;2023-02-12T00:12:36;4.95;;;2.85;;
21771;SDS011;11047;47.904;8.110;2023-02-12T00:15:03;6.63;;;2.97;;
21771;SDS011;11047;47.904;8.110;2023-02-12T00:17:30;6.00;;;3.13;;
21771;SDS011;11047;47.904;8.110;2023-02-12T00:19:57;5.53;;;3.05;;
21771;SDS011;11047;47.904;8.110;2023-02-12T00:22:24;5.53;;;2.70;;
21771;SDS011;11047;47.904;8.110;2023-02-12T00:24:53;4.47;;;2.83;;
21771;SDS011;11047;47.904;8.110;2023-02-12T00:27:20;3.97;;;2.55;;
21771;SDS011;11047;47.904;8.110;2023-02-12T00:29:47;6.50;;;2.97;;
21771;SDS011;11047;47.904;8.110;2023-02-12T00:32:14;8.05;;;3.28;;
21771;SDS011;11047;47.904;8.110;2023-02-12T00:34:43;4.93;;;2.88;;
21771;SDS011;11047;47.904;8.110;2023-02-12T00:37:10;4.43;;;2.80;;
21771;SDS011;11047;47.904;8.110;2023-02-12T00:39:37;5.72;;;3.15;;
21771;SDS011;11047;47.904;8.110;2023-02-12T00:42:05;7.90;;;2.55;;
21771;SDS011;11047;47.904;8.110;2023-02-12T00:44:33;4.57;;;2.80;;
21771;SDS011;11047;47.904;8.110;2023-02-12T00:47:00;5.53;;;3.13;;
21771;SDS011;11047;47.904;8.110;2023-02-12T00:49:27;4.97;;;3.10;;
21771;SDS011;11047;47.904;8.110;2023-02-12T00:51:58;6.75;;;3.63;;
21771;SDS011;11047;47.904;8.110;2023-02-12T00:54:25;4.43;;;2.60;;
21771;SDS011;11047;47.904;8.110;2023-02-12T00:56:52;5.88;;;3.22;;
21771;SDS011;11047;47.904;8.110;2023-02-12T00:59:21;5.63;;;3.38;;
21771;SDS011;11047;47.904;8.110;2023-02-12T01:01:48;5.85;;;3.30;;
21771;SDS011;11047;47.904;8.110;2023-02-12T01:04:15;5.35;;;2.97;;
21771;SDS011;11047;47.904;8.110;2023-02-12T01:06:42;4.97;;;2.72;;
21771;SDS011;11047;47.904;8.110;2023-02-12T01:09:09;5.80;;;3.17;;
21771;SDS011;11047;47.904;8.110;2023-02-12T01:11:37;4.70;;;3.13;;
21771;SDS011;11047;47.904;8.110;2023-02-12T01:14:04;4.10;;;2.85;;
21771;SDS011;11047;47.904;8.110;2023-02-12T01:16:32;5.35;;;2.78;;
21771;SDS011;11047;47.904;8.110;2023-02-12T01:19:01;4.45;;;2.88;;
21771;SDS011;11047;47.904;8.110;2023-02-12T01:21:29;5.07;;;2.88;;
21771;SDS011;11047;47.904;8.110;2023-02-12T01:23:58;6.25;;;3.28;;
21771;SDS011;11047;47.904;8.110;2023-02-12T01:26:26;5.43;;;3.08;;
21771;SDS011;11047;47.904;8.110;2023-02-12T01:28:55;4.90;;;3.40;;
21771;SDS011;11047;47.904;8.110;2023-02-12T01:31:24;5.75;;;3.00;;
21771;SDS011;11047;47.904;8.110;2023-02-12T01:33:54;4.43;;;2.92;;
21771;SDS011;11047;47.904;8.110;2023-02-12T01:36:22;4.75;;;3.10;;
21771;SDS011;11047;47.904;8.110;2023-02-12T01:38:50;5.65;;;3.30;;
21771;SDS011;11047;47.904;8.110;2023-02-12T01:41:18;7.05;;;3.58;;
21771;SDS011;11047;47.904;8.110;2023-02-12T01:46:33;7.07;;;3.03;;
21771;SDS011;11047;47.904;8.110;2023-02-12T01:49:02;3.97;;;2.85;;
21771;SDS011;11047;47.904;8.110;2023-02-12T01:51:31;4.53;;;2.97;;
21771;SDS011;11047;47.904;8.110;2023-02-12T01:54:00;4.57;;;3.17;;
21771;SDS011;11047;47.904;8.110;2023-02-12T01:56:30;5.18;;;3.15;;
21771;SDS011;11047;47.904;8.110;2023-02-12T01:58:58;8.07;;;2.97;;
21771;SDS011;11047;47.904;8.110;2023-02-12T02:01:26;5.38;;;3.13;;
21771;SDS011;11047;47.904;8.110;2023-02-12T02:03:56;5.93;;;3.15;;
21771;SDS011;11047;47.904;8.110;2023-02-12T02:06:29;6.63;;;2.95;;
21771;SDS011;11047;47.904;8.110;2023-02-12T02:08:58;6.13;;;3.40;;
21771;SDS011;11047;47.904;8.110;2023-02-12T02:11:27;5.20;;;3.33;;
21771;SDS011;11047;47.904;8.110;2023-02-12T02:14:11;4.65;;;2.97;;
21771;SDS011;11047;47.904;8.110;2023-02-12T02:16:58;5.75;;;3.30;;
21771;SDS011;11047;47.904;8.110;2023-02-12T02:19:47;7.35;;;3.30;;
21771;SDS011;11047;47.904;8.110;2023-02-12T02:22:36;5.90;;;2.97;;
21771;SDS011;11047;47.904;8.110;2023-02-12T02:28:32;7.40;;;3.05;;
21771;SDS011;11047;47.904;8.110;2023-02-12T02:31:17;5.78;;;3.15;;
21771;SDS011;11047;47.904;8.110;2023-02-12T02:33:52;5.90;;;3.22;;
21771;SDS011;11047;47.904;8.110;2023-02-12T02:36:24;6.28;;;3.25;;
21771;SDS011;11047;47.904;8.110;2023-02-12T02:39:06;5.20;;;3.10;;
21771;SDS011;11047;47.904;8.110;2023-02-12T02:41:43;4.97;;;3.47;;
21771;SDS011;11047;47.904;8.110;2023-02-12T02:44:14;6.50;;;3.13;;
21771;SDS011;11047;47.904;8.110;2023-02-12T02:46:48;5.03;;;3.00;;
21771;SDS011;11047;47.904;8.110;2023-02-12T02:49:18;5.57;;;3.15;;
21771;SDS011;11047;47.904;8.110;2023-02-12T02:51:50;3.92;;;2.75;;
21771;SDS011;11047;47.904;8.110;2023-02-12T02:54:20;5.95;;;3.08;;
21771;SDS011;11047;47.904;8.110;2023-02-12T02:56:54;5.10;;;2.97;;
21771;SDS011;11047;47.904;8.110;2023-02-12T02:59:25;4.35;;;2.75;;
21771;SDS011;11047;47.904;8.110;2023-02-12T03:02:00;4.75;;;2.83;;
21771;SDS011;11047;47.904;8.110;2023-02-12T03:04:32;11.40;;;3.05;;
21771;SDS011;11047;47.904;8.110;2023-02-12T03:07:02;3.92;;;2.83;;
21771;SDS011;11047;47.904;8.110;2023-02-12T03:09:35;4.03;;;2.78;;
21771;SDS011;11047;47.904;8.110;2023-02-12T03:12:06;3.92;;;2.50;;
21771;SDS011;11047;47.904;8.110;2023-02-12T03:14:38;4.70;;;2.53;;
21771;SDS011;11047;47.904;8.110;2023-02-12T03:17:11;7.35;;;3.20;;
21771;SDS011;11047;47.904;8.110;2023-02-12T03:19:43;3.38;;;2.65;;
21771;SDS011;11047;47.904;8.110;2023-02-12T03:22:13;4.78;;;2.95;;
21771;SDS011;11047;47.904;8.110;2023-02-12T03:24:44;7.18;;;3.03;;
21771;SDS011;11047;47.904;8.110;2023-02-12T03:27:15;4.10;;;3.05;;
21771;SDS011;11047;47.904;8.110;2023-02-12T03:29:45;4.03;;;2.40;;
21771;SDS011;11047;47.904;8.110;2023-02-12T03:32:17;5.32;;;3.33;;
21771;SDS011;11047;47.904;8.110;2023-02-12T03:34:54;4.18;;;2.70;;
21771;SDS011;11047;47.904;8.110;2023-02-12T03:37:33;5.78;;;3.08;;
21771;SDS011;11047;47.904;8.110;2023-02-12T03:40:05;4.97;;;2.95;;
21771;SDS011;11047;47.904;8.110;2023-02-12T03:42:38;5.72;;;3.10;;
21771;SDS011;11047;47.904;8.110;2023-02-12T03:45:13;5.35;;;3.30;;
21771;SDS011;11047;47.904;8.110;2023-02-12T03:47:55;5.07;;;3.28;;
21771;SDS011;11047;47.904;8.110;2023-02-12T03:50:28;3.60;;;2.60;;
21771;SDS011;11047;47.904;8.110;2023-02-12T03:53:02;5.25;;;2.72;;
21771;SDS011;11047;47.904;8.110;2023-02-12T03:55:30;5.70;;;2.83;;
21771;SDS011;11047;47.904;8.110;2023-02-12T03:58:00;3.53;;;2.75;;
21771;SDS011;11047;47.904;8.110;2023-02-12T04:00:28;5.68;;;2.67;;
21771;SDS011;11047;47.904;8.110;2023-02-12T04:02:57;4.03;;;2.70;;
21771;SDS011;11047;47.904;8.110;2023-02-12T04:05:24;5.53;;;2.63;;
21771;SDS011;11047;47.904;8.110;2023-02-12T04:07:53;5.65;;;3.28;;
21771;SDS011;11047;47.904;8.110;2023-02-12T04:10:23;4.60;;;3.10;;
21771;SDS011;11047;47.904;8.110;2023-02-12T04:15:29;5.30;;;3.03;;
21771;SDS011;11047;47.904;8.110;2023-02-12T04:18:10;4.32;;;3.22;;
21771;SDS011;11047;47.904;8.110;2023-02-12T04:20:47;5.35;;;3.42;;
21771;SDS011;11047;47.904;8.110;2023-02-12T04:23:28;7.78;;;3.15;;
21771;SDS011;11047;47.904;8.110;2023-02-12T04:26:09;6.13;;;3.40;;
21771;SDS011;11047;47.904;8.110;2023-02-12T04:28:44;6.28;;;3.90;;
21771;SDS011;11047;47.904;8.110;2023-02-12T04:31:19;6.72;;;4.10;;
21771;SDS011;11047;47.904;8.110;2023-02-12T04:33:53;8.45;;;3.67;;
21771;SDS011;11047;47.904;8.110;2023-02-12T04:36:26;7.25;;;4.05;;
21771;SDS011;11047;47.904;8.110;2023-02-12T04:38:58;6.13;;;3.50;;
21771;SDS011;11047;47.904;8.110;2023-02-12T04:41:28;6.85;;;4.25;;
21771;SDS011;11047;47.904;8.110;2023-02-12T04:43:56;11.50;;;4.97;;
21771;SDS011;11047;47.904;8.110;2023-02-12T04:46:23;7.15;;;4.40;;
21771;SDS011;11047;47.904;8.110;2023-02-12T04:48:52;8.60;;;4.32;;
21771;SDS011;11047;47.904;8.110;2023-02-12T04:51:20;10.60;;;4.53;;
21771;SDS011;11047;47.904;8.110;2023-02-12T04:53:47;12.25;;;5.28;;
21771;SDS011;11047;47.904;8.110;2023-02-12T04:56:14;13.00;;;5.90;;
21771;SDS011;11047;47.904;8.110;2023-02-12T04:58:41;12.35;;;6.07;;
21771;SDS011;11047;47.904;8.110;2023-02-12T05:01:09;12.00;;;5.55;;
21771;SDS011;11047;47.904;8.110;2023-02-12T05:03:36;14.40;;;6.25;;
21771;SDS011;11047;47.904;8.110;2023-02-12T05:06:05;13.40;;;6.03;;
21771;SDS011;11047;47.904;8.110;2023-02-12T05:08:34;12.55;;;6.75;;
21771;SDS011;11047;47.904;8.110;2023-02-12T05:11:04;14.52;;;7.38;;
21771;SDS011;11047;47.904;8.110;2023-02-12T05:13:32;14.27;;;7.32;;
21771;SDS011;11047;47.904;8.110;2023-02-12T05:15:59;21.02;;;8.38;;
21771;SDS011;11047;47.904;8.110;2023-02-12T05:18:29;19.05;;;7.85;;
21771;SDS011;11047;47.904;8.110;2023-02-12T05:20:57;13.02;;;5.80;;
21771;SDS011;11047;47.904;8.110;2023-02-12T05:23:26;12.82;;;6.53;;
21771;SDS011;11047;47.904;8.110;2023-02-12T05:25:53;16.65;;;7.78;;
21771;SDS011;11047;47.904;8.110;2023-02-12T05:28:20;13.27;;;6.07;;
21771;SDS011;11047;47.904;8.110;2023-02-12T05:30:47;14.95;;;6.10;;
21771;SDS011;11047;47.904;8.110;2023-02-12T05:33:14;12.13;;;6.43;;
21771;SDS011;11047;47.904;8.110;2023-02-12T05:35:40;14.77;;;6.90;;
21771;SDS011;11047;47.904;8.110;2023-02-12T05:38:07;12.35;;;6.25;;
21771;SDS011;11047;47.904;8.110;2023-02-12T05:40:35;18.98;;;7.97;;
21771;SDS011;11047;47.904;8.110;2023-02-12T05:43:04;16.98;;;7.60;;
21771;SDS011;11047;47.904;8.110;2023-02-12T05:45:31;15.23;;;7.38;;
21771;SDS011;11047;47.904;8.110;2023-02-12T05:47:58;17.40;;;7.47;;
21771;SDS011;11047;47.904;8.110;2023-02-12T05:50:25;17.88;;;6.80;;
21771;SDS011;11047;47.904;8.110;2023-02-12T05:52:51;18.02;;;7.43;;
21771;SDS011;11047;47.904;8.110;2023-02-12T05:55:18;13.73;;;6.75;;
21771;SDS011;11047;47.904;8.110;2023-02-12T05:57:46;13.73;;;7.57;;
21771;SDS011;11047;47.904;8.110;2023-02-12T06:00:14;14.35;;;6.40;;
21771;SDS011;11047;47.904;8.110;2023-02-12T06:02:41;12.55;;;6.45;;
21771;SDS011;11047;47.904;8.110;2023-02-12T06:05:08;12.85;;;6.45;;
21771;SDS011;11047;47.904;8.110;2023-02-12T06:07:35;12.10;;;5.97;;
21771;SDS011;11047;47.904;8.110;2023-02-12T06:10:02;11.05;;;5.40;;
21771;SDS011;11047;47.904;8.110;2023-02-12T06:12:29;14.75;;;7.28;;
21771;SDS011;11047;47.904;8.110;2023-02-12T06:14:57;16.15;;;7.47;;
21771;SDS011;11047;47.904;8.110;2023-02-12T06:17:24;16.65;;;7.65;;
21771;SDS011;11047;47.904;8.110;2023-02-12T06:19:51;13.57;;;6.63;;
21771;SDS011;11047;47.904;8.110;2023-02-12T06:22:17;13.75;;;7.32;;
21771;SDS011;11047;47.904;8.110;2023-02-12T06:24:44;15.48;;;6.93;;
21771;SDS011;11047;47.904;8.110;2023-02-12T06:27:11;13.80;;;5.85;;
21771;SDS011;11047;47.904;8.110;2023-02-12T06:29:38;13.35;;;6.57;;
21771;SDS011;11047;47.904;8.110;2023-02-12T06:32:06;15.20;;;6.05;;
21771;SDS011;11047;47.904;8.110;2023-02-12T06:34:33;12.70;;;5.97;;
21771;SDS011;11047;47.904;8.110;2023-02-12T06:37:00;12.80;;;5.78;;
21771;SDS011;11047;47.904;8.110;2023-02-12T06:39:27;18.50;;;8.07;;
21771;SDS011;11047;47.904;8.110;2023-02-12T06:41:53;14.23;;;6.03;;
21771;SDS011;11047;47.904;8.110;2023-02-12T06:44:20;17.17;;;6.10;;
21771;SDS011;11047;47.904;8.110;2023-02-12T06:46:47;14.10;;;7.03;;
21771;SDS011;11047;47.904;8.110;2023-02-12T06:49:16;15.20;;;6.90;;
21771;SDS011;11047;47.904;8.110;2023-02-12T06:51:42;12.40;;;6.00;;
21771;SDS011;11047;47.904;8.110;2023-02-12T06:54:13;16.50;;;6.78;;
21771;SDS011;11047;47.904;8.110;2023-02-12T06:56:41;15.70;;;7.28;;
21771;SDS011;11047;47.904;8.110;2023-02-12T06:59:10;15.30;;;6.75;;
21771;SDS011;11047;47.904;8.110;2023-02-12T07:01:39;15.35;;;7.90;;
21771;SDS011;11047;47.904;8.110;2023-02-12T07:04:06;17.48;;;6.95;;
21771;SDS011;11047;47.904;8.110;2023-02-12T07:06:34;17.20;;;7.65;;
21771;SDS011;11047;47.904;8.110;2023-02-12T07:09:02;14.48;;;6.55;;
21771;SDS011;11047;47.904;8.110;2023-02-12T07:11:30;15.95;;;7.38;;
21771;SDS011;11047;47.904;8.110;2023-02-12T07:13:59;16.25;;;6.90;;
21771;SDS011;11047;47.904;8.110;2023-02-12T07:16:26;14.48;;;6.63;;
21771;SDS011;11047;47.904;8.110;2023-02-12T07:18:54;14.05;;;7.60;;
21771;SDS011;11047;47.904;8.110;2023-02-12T07:21:21;18.35;;;7.07;;
21771;SDS011;11047;47.904;8.110;2023-02-12T07:23:49;18.45;;;7.63;;
21771;SDS011;11047;47.904;8.110;2023-02-12T07:26:18;13.40;;;6.47;;
21771;SDS011;11047;47.904;8.110;2023-02-12T07:28:46;16.33;;;6.85;;
21771;SDS011;11047;47.904;8.110;2023-02-12T07:31:13;15.30;;;6.85;;
21771;SDS011;11047;47.904;8.110;2023-02-12T07:33:42;16.77;;;7.28;;
21771;SDS011;11047;47.904;8.110;2023-02-12T07:36:11;13.95;;;7.50;;
21771;SDS011;11047;47.904;8.110;2023-02-12T07:38:39;12.48;;;6.80;;
21771;SDS011;11047;47.904;8.110;2023-02-12T07:41:09;15.18;;;7.53;;
21771;SDS011;11047;47.904;8.110;2023-02-12T07:43:37;17.92;;;8.48;;
21771;SDS011;11047;47.904;8.110;2023-02-12T07:46:05;15.70;;;7.05;;
21771;SDS011;11047;47.904;8.110;2023-02-12T07:48:36;18.90;;;7.60;;
21771;SDS011;11047;47.904;8.110;2023-02-12T07:51:04;16.73;;;7.28;;
21771;SDS011;11047;47.904;8.110;2023-02-12T07:53:32;13.52;;;6.97;;
21771;SDS011;11047;47.904;8.110;2023-02-12T07:56:05;14.65;;;7.05;;
21771;SDS011;11047;47.904;8.110;2023-02-12T07:58:35;12.85;;;7.20;;
21771;SDS011;11047;47.904;8.110;2023-02-12T08:01:09;11.82;;;6.75;;
21771;SDS011;11047;47.904;8.110;2023-02-12T08:03:37;14.98;;;6.85;;
21771;SDS011;11047;47.904;8.110;2023-02-12T08:06:08;13.95;;;7.68;;
21771;SDS011;11047;47.904;8.110;2023-02-12T08:08:35;15.90;;;7.47;;
21771;SDS011;11047;47.904;8.110;2023-02-12T08:11:03;14.30;;;6.93;;
21771;SDS011;11047;47.904;8.110;2023-02-12T08:13:31;11.93;;;6.45;;
21771;SDS011;11047;47.904;8.110;2023-02-12T08:16:02;13.90;;;7.63;;
21771;SDS011;11047;47.904;8.110;2023-02-12T08:18:31;12.67;;;6.67;;
21771;SDS011;11047;47.904;8.110;2023-02-12T08:21:02;13.07;;;6.43;;
21771;SDS011;11047;47.904;8.110;2023-02-12T08:23:29;12.05;;;6.30;;
21771;SDS011;11047;47.904;8.110;2023-02-12T08:26:03;15.50;;;7.47;;
21771;SDS011;11047;47.904;8.110;2023-02-12T08:28:31;9.52;;;6.35;;
21771;SDS011;11047;47.904;8.110;2023-02-12T08:30:59;12.50;;;5.97;;
21771;SDS011;11047;47.904;8.110;2023-02-12T08:33:28;12.38;;;6.53;;
21771;SDS011;11047;47.904;8.110;2023-02-12T08:36:02;12.15;;;6.35;;
21771;SDS011;11047;47.904;8.110;2023-02-12T08:38:31;10.75;;;5.88;;
21771;SDS011;11047;47.904;8.110;2023-02-12T08:41:01;10.90;;;6.38;;
21771;SDS011;11047;47.904;8.110;2023-02-12T08:43:29;10.43;;;7.07;;
21771;SDS011;11047;47.904;8.110;2023-02-12T08:46:01;13.35;;;6.68;;
21771;SDS011;11047;47.904;8.110;2023-02-12T08:48:29;11.30;;;6.73;;
21771;SDS011;11047;47.904;8.110;2023-02-12T08:50:56;12.50;;;6.65;;
21771;SDS011;11047;47.904;8.110;2023-02-12T08:53:28;10.70;;;6.18;;
21771;SDS011;11047;47.904;8.110;2023-02-12T08:55:55;10.73;;;6.60;;
21771;SDS011;11047;47.904;8.110;2023-02-12T08:58:21;9.13;;;5.82;;
21771;SDS011;11047;47.904;8.110;2023-02-12T09:00:48;9.63;;;6.15;;
21771;SDS011;11047;47.904;8.110;2023-02-12T09:03:17;10.48;;;5.93;;
21771;SDS011;11047;47.904;8.110;2023-02-12T09:05:43;10.88;;;6.60;;
21771;SDS011;11047;47.904;8.110;2023-02-12T09:08:10;8.50;;;5.72;;
21771;SDS011;11047;47.904;8.110;2023-02-12T09:10:37;10.18;;;6.57;;
21771;SDS011;11047;47.904;8.110;2023-02-12T09:13:04;9.60;;;5.93;;
21771;SDS011;11047;47.904;8.110;2023-02-12T09:15:34;10.05;;;6.10;;
21771;SDS011;11047;47.904;8.110;2023-02-12T09:18:02;10.70;;;6.30;;
21771;SDS011;11047;47.904;8.110;2023-02-12T09:20:30;8.27;;;5.03;;
21771;SDS011;11047;47.904;8.110;2023-02-12T09:22:57;8.82;;;5.60;;
21771;SDS011;11047;47.904;8.110;2023-02-12T09:25:25;9.68;;;5.43;;
21771;SDS011;11047;47.904;8.110;2023-02-12T09:27:52;9.93;;;6.43;;
21771;SDS011;11047;47.904;8.110;2023-02-12T09:30:20;8.13;;;5.03;;
21771;SDS011;11047;47.904;8.110;2023-02-12T09:32:47;7.70;;;5.45;;
21771;SDS011;11047;47.904;8.110;2023-02-12T09:35:14;8.90;;;5.40;;
21771;SDS011;11047;47.904;8.110;2023-02-12T09:37:43;8.65;;;5.20;;
21771;SDS011;11047;47.904;8.110;2023-02-12T09:40:15;7.13;;;4.82;;
21771;SDS011;11047;47.904;8.110;2023-02-12T09:42:51;9.35;;;5.60;;
21771;SDS011;11047;47.904;8.110;2023-02-12T09:45:26;7.97;;;5.38;;
21771;SDS011;11047;47.904;8.110;2023-02-12T09:47:57;8.38;;;4.93;;
21771;SDS011;11047;47.904;8.110;2023-02-12T09:50:32;8.85;;;5.55;;
21771;SDS011;11047;47.904;8.110;2023-02-12T09:53:07;8.75;;;5.45;;
21771;SDS011;11047;47.904;8.110;2023-02-12T09:55:37;8.35;;;5.13;;
21771;SDS011;11047;47.904;8.110;2023-02-12T09:58:06;7.75;;;5.32;;
21771;SDS011;11047;47.904;8.110;2023-02-12T10:00:39;6.43;;;5.10;;
21771;SDS011;11047;47.904;8.110;2023-02-12T10:03:10;6.38;;;4.60;;
21771;SDS011;11047;47.904;8.110;2023-02-12T10:05:40;6.90;;;4.95;;
21771;SDS011;11047;47.904;8.110;2023-02-12T10:08:18;6.75;;;4.82;;
21771;SDS011;11047;47.904;8.110;2023-02-12T10:11:12;6.53;;;4.63;;
21771;SDS011;11047;47.904;8.110;2023-02-12T10:13:48;6.35;;;4.82;;
21771;SDS011;11047;47.904;8.110;2023-02-12T10:16:32;8.35;;;5.13;;
21771;SDS011;11047;47.904;8.110;2023-02-12T10:19:15;7.65;;;4.57;;
21771;SDS011;11047;47.904;8.110;2023-02-12T10:21:54;6.88;;;4.65;;
21771;SDS011;11047;47.904;8.110;2023-02-12T10:24:33;7.40;;;4.47;;
21771;SDS011;11047;47.904;8.110;2023-02-12T10:27:09;6.32;;;4.32;;
21771;SDS011;11047;47.904;8.110;2023-02-12T10:29:39;6.28;;;4.22;;
21771;SDS011;11047;47.904;8.110;2023-02-12T10:32:10;7.05;;;4.45;;
21771;SDS011;11047;47.904;8.110;2023-02-12T10:34:49;7.90;;;4.43;;
21771;SDS011;11047;47.904;8.110;2023-02-12T10:37:20;5.57;;;4.10;;
21771;SDS011;11047;47.904;8.110;2023-02-12T10:39:55;5.25;;;3.78;;
21771;SDS011;11047;47.904;8.110;2023-02-12T10:42:31;7.35;;;4.60;;
21771;SDS011;11047;47.904;8.110;2023-02-12T10:45:03;4.90;;;3.67;;
21771;SDS011;11047;47.904;8.110;2023-02-12T10:47:32;5.50;;;3.80;;
21771;SDS011;11047;47.904;8.110;2023-02-12T10:49:59;4.68;;;3.60;;
21771;SDS011;11047;47.904;8.110;2023-02-12T10:52:32;6.05;;;3.75;;
21771;SDS011;11047;47.904;8.110;2023-02-12T10:55:08;5.82;;;3.50;;
21771;SDS011;11047;47.904;8.110;2023-02-12T10:57:53;5.93;;;4.15;;
21771;SDS011;11047;47.904;8.110;2023-02-12T11:00:22;4.07;;;2.97;;
21771;SDS011;11047;47.904;8.110;2023-02-12T11:02:59;3.72;;;2.97;;
21771;SDS011;11047;47.904;8.110;2023-02-12T11:05:32;4.10;;;3.03;;
21771;SDS011;11047;47.904;8.110;2023-02-12T11:08:00;5.20;;;3.08;;
21771;SDS011;11047;47.904;8.110;2023-02-12T11:10:29;4.60;;;3.17;;
21771;SDS011;11047;47.904;8.110;2023-02-12T11:12:57;4.00;;;2.83;;
21771;SDS011;11047;47.904;8.110;2023-02-12T11:15:25;3.55;;;2.50;;
21771;SDS011;11047;47.904;8.110;2023-02-12T11:17:57;4.22;;;2.85;;
21771;SDS011;11047;47.904;8.110;2023-02-12T11:20:26;3.30;;;2.80;;
21771;SDS011;11047;47.904;8.110;2023-02-12T11:22:56;4.95;;;2.70;;
21771;SDS011;11047;47.904;8.110;2023-02-12T11:25:25;3.67;;;2.65;;
21771;SDS011;11047;47.904;8.110;2023-02-12T11:27:59;3.63;;;2.85;;
21771;SDS011;11047;47.904;8.110;2023-02-12T11:30:29;4.82;;;2.88;;
21771;SDS011;11047;47.904;8.110;2023-02-12T11:35:57;3.78;;;2.78;;
21771;SDS011;11047;47.904;8.110;2023-02-12T11:38:27;3.05;;;2.30;;
21771;SDS011;11047;47.904;8.110;2023-02-12T11:41:05;1.75;;;1.63;;
21771;SDS011;11047;47.904;8.110;2023-02-12T11:43:45;2.08;;;1.80;;
21771;SDS011;11047;47.904;8.110;2023-02-12T11:46:16;2.10;;;1.90;;
21771;SDS011;11047;47.904;8.110;2023-02-12T11:48:45;2.37;;;1.80;;
21771;SDS011;11047;47.904;8.110;2023-02-12T11:51:16;2.92;;;2.35;;
21771;SDS011;11047;47.904;8.110;2023-02-12T11:53:46;2.88;;;2.45;;
21771;SDS011;11047;47.904;8.110;2023-02-12T11:56:15;3.90;;;2.45;;
21771;SDS011;11047;47.904;8.110;2023-02-12T11:58:42;2.50;;;2.30;;
21771;SDS011;11047;47.904;8.110;2023-02-12T12:01:14;2.67;;;2.47;;
21771;SDS011;11047;47.904;8.110;2023-02-12T12:03:48;2.33;;;2.00;;
21771;SDS011;11047;47.904;8.110;2023-02-12T12:06:28;2.55;;;1.95;;
21771;SDS011;11047;47.904;8.110;2023-02-12T12:09:01;2.53;;;2.00;;
21771;SDS011;11047;47.904;8.110;2023-02-12T12:11:34;2.55;;;1.85;;
21771;SDS011;11047;47.904;8.110;2023-02-12T12:14:13;3.72;;;2.60;;
21771;SDS011;11047;47.904;8.110;2023-02-12T12:16:47;3.50;;;2.25;;
21771;SDS011;11047;47.904;8.110;2023-02-12T12:19:38;2.55;;;1.85;;
21771;SDS011;11047;47.904;8.110;2023-02-12T12:22:24;2.53;;;2.00;;
21771;SDS011;11047;47.904;8.110;2023-02-12T12:25:03;3.42;;;2.03;;
21771;SDS011;11047;47.904;8.110;2023-02-12T12:27:37;2.80;;;1.83;;
21771;SDS011;11047;47.904;8.110;2023-02-12T12:30:32;2.10;;;1.70;;
21771;SDS011;11047;47.904;8.110;2023-02-12T12:33:13;2.22;;;1.42;;
21771;SDS011;11047;47.904;8.110;2023-02-12T12:35:44;3.63;;;1.75;;
21771;SDS011;11047;47.904;8.110;2023-02-12T12:38:29;3.03;;;2.05;;
21771;SDS011;11047;47.904;8.110;2023-02-12T12:41:06;1.65;;;1.55;;
21771;SDS011;11047;47.904;8.110;2023-02-12T12:43:44;2.17;;;1.80;;
21771;SDS011;11047;47.904;8.110;2023-02-12T12:46:32;2.03;;;1.67;;
21771;SDS011;11047;47.904;8.110;2023-02-12T12:49:13;1.85;;;1.60;;
21771;SDS011;11047;47.904;8.110;2023-02-12T12:51:59;2.25;;;1.90;;
21771;SDS011;11047;47.904;8.110;2023-02-12T12:54:44;2.25;;;1.60;;
21771;SDS011;11047;47.904;8.110;2023-02-12T12:57:30;2.00;;;1.60;;
21771;SDS011;11047;47.904;8.110;2023-02-12T13:00:13;3.42;;;2.38;;
21771;SDS011;11047;47.904;8.110;2023-02-12T13:02:59;1.92;;;1.65;;
21771;SDS011;11047;47.904;8.110;2023-02-12T13:05:53;2.20;;;1.88;;
21771;SDS011;11047;47.904;8.110;2023-02-12T13:08:49;3.60;;;1.75;;
21771;SDS011;11047;47.904;8.110;2023-02-12T13:11:33;2.67;;;2.00;;
21771;SDS011;11047;47.904;8.110;2023-02-12T13:14:10;2.13;;;1.70;;
21771;SDS011;11047;47.904;8.110;2023-02-12T13:16:47;1.98;;;1.73;;
21771;SDS011;11047;47.904;8.110;2023-02-12T13:19:22;2.55;;;1.70;;
21771;SDS011;11047;47.904;8.110;2023-02-12T13:22:04;1.50;;;1.38;;
21771;SDS011;11047;47.904;8.110;2023-02-12T13:24:37;1.42;;;1.33;;
21771;SDS011;11047;47.904;8.110;2023-02-12T13:27:11;1.60;;;1.40;;
21771;SDS011;11047;47.904;8.110;2023-02-12T13:29:42;1.67;;;1.58;;
21771;SDS011;11047;47.904;8.110;2023-02-12T13:32:13;2.70;;;2.03;;
21771;SDS011;11047;47.904;8.110;2023-02-12T13:34:47;1.90;;;1.65;;
21771;SDS011;11047;47.904;8.110;2023-02-12T13:37:17;1.98;;;1.45;;
21771;SDS011;11047;47.904;8.110;2023-02-12T13:39:50;2.42;;;1.77;;
21771;SDS011;11047;47.904;8.110;2023-02-12T13:42:25;2.00;;;1.50;;
21771;SDS011;11047;47.904;8.110;2023-02-12T13:45:03;2.72;;;1.30;;
21771;SDS011;11047;47.904;8.110;2023-02-12T13:47:44;1.70;;;1.33;;
21771;SDS011;11047;47.904;8.110;2023-02-12T13:50:28;2.03;;;1.60;;
21771;SDS011;11047;47.904;8.110;2023-02-12T13:53:06;1.10;;;1.02;;
21771;SDS011;11047;47.904;8.110;2023-02-12T13:55:47;1.30;;;1.20;;
21771;SDS011;11047;47.904;8.110;2023-02-12T13:58:38;2.08;;;1.60;;
21771;SDS011;11047;47.904;8.110;2023-02-12T14:01:12;2.10;;;1.50;;
21771;SDS011;11047;47.904;8.110;2023-02-12T14:04:12;3.03;;;1.85;;
21771;SDS011;11047;47.904;8.110;2023-02-12T14:06:51;1.92;;;1.60;;
21771;SDS011;11047;47.904;8.110;2023-02-12T14:09:21;2.15;;;1.50;;
21771;SDS011;11047;47.904;8.110;2023-02-12T14:11:54;1.55;;;1.40;;
21771;SDS011;11047;47.904;8.110;2023-02-12T14:14:25;2.47;;;1.30;;
21771;SDS011;11047;47.904;8.110;2023-02-12T14:16:56;2.20;;;1.70;;
21771;SDS011;11047;47.904;8.110;2023-02-12T14:25:36;3.65;;;1.45;;
21771;SDS011;11047;47.904;8.110;2023-02-12T14:28:06;2.88;;;1.90;;
21771;SDS011;11047;47.904;8.110;2023-02-12T14:33:47;1.27;;;1.15;;
21771;SDS011;11047;47.904;8.110;2023-02-12T14:36:17;1.48;;;1.30;;
21771;SDS011;11047;47.904;8.110;2023-02-12T14:38:56;1.45;;;1.27;;
21771;SDS011;11047;47.904;8.110;2023-02-12T14:41:28;2.78;;;1.55;;
21771;SDS011;11047;47.904;8.110;2023-02-12T14:50:13;1.90;;;1.50;;
21771;SDS011;11047;47.904;8.110;2023-02-12T14:52:48;2.47;;;1.92;;
21771;SDS011;11047;47.904;8.110;2023-02-12T14:55:25;2.42;;;1.90;;
21771;SDS011;11047;47.904;8.110;2023-02-12T14:57:57;4.32;;;2.65;;
21771;SDS011;11047;47.904;8.110;2023-02-12T15:00:27;2.97;;;1.85;;
21771;SDS011;11047;47.904;8.110;2023-02-12T15:02:59;4.70;;;2.25;;
21771;SDS011;11047;47.904;8.110;2023-02-12T15:05:35;1.35;;;1.25;;
21771;SDS011;11047;47.904;8.110;2023-02-12T15:08:06;3.45;;;1.70;;
21771;SDS011;11047;47.904;8.110;2023-02-12T15:10:45;1.67;;;1.40;;
21771;SDS011;11047;47.904;8.110;2023-02-12T15:13:15;2.05;;;1.50;;
21771;SDS011;11047;47.904;8.110;2023-02-12T15:15:49;2.53;;;1.75;;
21771;SDS011;11047;47.904;8.110;2023-02-12T15:18:21;4.30;;;2.20;;
21771;SDS011;11047;47.904;8.110;2023-02-12T15:20:54;2.83;;;2.33;;
21771;SDS011;11047;47.904;8.110;2023-02-12T15:23:38;4.05;;;2.30;;
21771;SDS011;11047;47.904;8.110;2023-02-12T15:26:11;3.40;;;2.60;;
21771;SDS011;11047;47.904;8.110;2023-02-12T15:28:40;3.03;;;2.55;;
21771;SDS011;11047;47.904;8.110;2023-02-12T15:31:13;3.63;;;2.85;;
21771;SDS011;11047;47.904;8.110;2023-02-12T15:33:44;3.72;;;2.83;;
21771;SDS011;11047;47.904;8.110;2023-02-12T15:36:15;4.50;;;3.10;;